Time;durP1;ratioP1;P1;durP2;ratioP2;P2;SDS_P1;SDS_P2;PMS_P1;PMS_P2;Temp;Humidity;BMP_temperature;BMP_pressure;BME280_temperature;BME280_humidity;BME280_pressure;Samples;Min_cycle;Max_cycle;Signal;HPM_P1;HPM_P2
2021/01/14 00:00:17;;;;;;;16.85;10.38;;;4.70;99.90;;;;;;5074194;28;20275;-67
2021/01/14 00:02:43;;;;;;;15.20;8.93;;;4.70;99.90;;;;;;5073850;28;20556;-68
2021/01/14 00:05:13;;;;;;;17.13;9.93;;;4.30;1.00;;;;;;5073929;28;20160;-68
2021/01/14 00:07:39;;;;;;;17.13;7.63;;;4.30;1.00;;;;;;5073845;28;20164;-68
2021/01/14 00:10:07;;;;;;;15.18;8.48;;;4.30;1.00;;;;;;5073983;28;20198;-67
2021/01/14 00:12:33;;;;;;;16.55;7.30;;;4.50;1.00;;;;;;5073691;28;20178;-67
2021/01/14 00:14:59;;;;;;;12.50;6.30;;;4.60;99.90;;;;;;5073723;28;20309;-68
2021/01/14 00:17:25;;;;;;;19.83;6.97;;;4.40;99.90;;;;;;5073662;28;20156;-67
2021/01/14 00:19:50;;;;;;;14.53;6.90;;;4.50;99.90;;;;;;5073575;28;20233;-67
2021/01/14 00:22:16;;;;;;;12.13;5.83;;;4.80;99.90;;;;;;5073824;28;20179;-68
2021/01/14 00:24:41;;;;;;;12.23;5.87;;;4.70;99.90;;;;;;5073446;28;20188;-67
2021/01/14 00:27:08;;;;;;;12.50;5.90;;;5.00;99.90;;;;;;5073470;28;20160;-68
2021/01/14 00:29:34;;;;;;;8.60;5.63;;;5.20;99.90;;;;;;5073342;28;20184;-68
2021/01/14 00:32:00;;;;;;;18.07;6.37;;;5.30;99.90;;;;;;5072935;28;20168;-68
2021/01/14 00:34:26;;;;;;;11.70;6.73;;;5.30;99.90;;;;;;5073371;28;20381;-68
2021/01/14 00:39:35;;;;;;;10.32;5.40;;;5.30;99.90;;;;;;5073783;28;20217;-68
2021/01/14 00:42:01;;;;;;;11.10;5.13;;;4.70;99.90;;;;;;5072029;28;20275;-68
2021/01/14 00:44:27;;;;;;;15.93;4.90;;;4.30;99.90;;;;;;5073168;28;20249;-68
2021/01/14 00:46:56;;;;;;;11.77;4.50;;;4.40;99.90;;;;;;5073572;28;20171;-68
2021/01/14 00:49:23;;;;;;;10.88;5.28;;;4.50;99.90;;;;;;5073095;28;20200;-68
2021/01/14 00:51:48;;;;;;;12.85;4.28;;;4.80;99.90;;;;;;5073096;28;20164;-68
2021/01/14 00:54:14;;;;;;;11.33;4.60;;;4.50;99.90;;;;;;5073154;28;20176;-67
2021/01/14 00:56:40;;;;;;;11.73;4.30;;;4.50;99.90;;;;;;5073038;28;20897;-68
2021/01/14 00:59:06;;;;;;;7.68;4.05;;;4.90;99.90;;;;;;5072993;28;20191;-67
2021/01/14 01:01:33;;;;;;;11.95;2.85;;;4.90;40.70;;;;;;5073038;28;20183;-68
2021/01/14 01:03:59;;;;;;;13.63;2.90;;;4.80;1.00;;;;;;5072902;28;20284;-68
2021/01/14 01:06:32;;;;;;;4.22;2.35;;;4.50;1.00;;;;;;5073045;28;20160;-67
2021/01/14 01:08:58;;;;;;;8.35;1.95;;;4.50;1.00;;;;;;5072897;28;20152;-68
2021/01/14 01:11:25;;;;;;;11.87;2.80;;;4.80;1.00;;;;;;5072903;28;20171;-67
2021/01/14 01:13:51;;;;;;;7.22;1.90;;;4.90;1.00;;;;;;5072843;28;20176;-67
2021/01/14 01:16:17;;;;;;;14.40;2.42;;;4.90;1.00;;;;;;5072910;28;20164;-68
2021/01/14 01:18:43;;;;;;;8.15;1.85;;;5.10;1.00;;;;;;5073049;28;20170;-68
2021/01/14 01:21:09;;;;;;;7.80;1.67;;;4.70;1.00;;;;;;5072853;28;20168;-68
2021/01/14 01:23:34;;;;;;;4.73;1.90;;;4.70;1.00;;;;;;5072758;28;20187;-68
2021/01/14 01:26:00;;;;;;;6.33;1.03;;;4.80;1.00;;;;;;5073058;28;20454;-68
2021/01/14 01:28:25;;;;;;;6.30;1.70;;;4.90;1.00;;;;;;5073052;28;20207;-67
2021/01/14 01:30:51;;;;;;;8.90;1.37;;;4.70;1.00;;;;;;5072666;28;20186;-68
2021/01/14 01:33:16;;;;;;;3.70;1.00;;;4.70;1.00;;;;;;5072729;28;20199;-68
2021/01/14 01:35:42;;;;;;;4.03;1.07;;;4.90;1.00;;;;;;5072682;28;20168;-68
2021/01/14 01:38:07;;;;;;;5.20;1.20;;;4.60;1.00;;;;;;5072898;28;20168;-67
2021/01/14 01:40:33;;;;;;;5.20;1.07;;;4.80;1.00;;;;;;5072875;28;20210;-68
2021/01/14 01:42:59;;;;;;;6.60;1.53;;;4.70;1.00;;;;;;5072515;28;20191;-68
2021/01/14 01:45:24;;;;;;;4.63;1.50;;;4.60;1.00;;;;;;5075333;28;20221;-68
2021/01/14 01:47:51;;;;;;;4.67;1.10;;;4.70;1.00;;;;;;5076406;28;20180;-67
2021/01/14 01:50:19;;;;;;;4.50;1.45;;;4.60;1.00;;;;;;5076449;28;20595;-68
2021/01/14 01:52:45;;;;;;;6.55;1.30;;;4.40;1.00;;;;;;5076391;28;20160;-67
2021/01/14 01:55:11;;;;;;;5.80;1.20;;;4.40;1.00;;;;;;5076339;28;20175;-67
2021/01/14 01:57:37;;;;;;;10.60;1.58;;;4.60;1.00;;;;;;5076559;28;20441;-67
2021/01/14 02:00:05;;;;;;;7.03;1.43;;;4.20;1.00;;;;;;5076246;28;20191;-67
2021/01/14 02:02:30;;;;;;;3.20;1.20;;;3.90;1.00;;;;;;5076205;28;20900;-67
2021/01/14 02:04:56;;;;;;;5.13;1.30;;;3.90;1.00;;;;;;5076143;28;20208;-67
2021/01/14 02:07:27;;;;;;;11.30;1.23;;;4.50;1.00;;;;;;5076563;28;20268;-67
2021/01/14 02:09:55;;;;;;;6.60;1.17;;;4.70;1.00;;;;;;5076279;28;20184;-67
2021/01/14 02:12:29;;;;;;;8.88;1.33;;;4.60;1.00;;;;;;5075971;28;20161;-68
2021/01/14 02:14:56;;;;;;;7.75;1.27;;;4.40;1.00;;;;;;5076037;28;20156;-68
2021/01/14 02:17:25;;;;;;;5.05;1.20;;;4.40;1.00;;;;;;5076238;28;20580;-68
2021/01/14 02:19:52;;;;;;;4.13;1.35;;;4.60;1.00;;;;;;5075759;28;20687;-68
2021/01/14 02:22:28;;;;;;;6.10;1.40;;;4.40;1.00;;;;;;5075858;28;20195;-67
2021/01/14 02:25:22;;;;;;;6.97;1.20;;;4.40;1.00;;;;;;5075762;28;20718;-68
2021/01/14 02:27:49;;;;;;;6.90;1.40;;;4.30;1.00;;;;;;5076324;28;20167;-68
2021/01/14 02:30:16;;;;;;;2.55;1.13;;;4.20;1.00;;;;;;5074680;28;20196;-68
2021/01/14 02:32:43;;;;;;;6.15;0.95;;;4.30;1.00;;;;;;5076343;28;20180;-68
2021/01/14 02:35:09;;;;;;;8.20;1.27;;;4.10;1.00;;;;;;5075833;28;20170;-68
2021/01/14 02:37:35;;;;;;;3.90;1.20;;;4.20;1.00;;;;;;5075607;28;20221;-68
2021/01/14 02:40:01;;;;;;;7.57;1.57;;;4.50;1.00;;;;;;5075433;28;20188;-68
2021/01/14 02:42:26;;;;;;;4.60;1.10;;;4.20;1.00;;;;;;5075545;28;20187;-68
2021/01/14 02:44:52;;;;;;;11.30;1.80;;;4.30;1.00;;;;;;5075384;28;20656;-68
2021/01/14 02:47:20;;;;;;;7.63;1.63;;;4.10;1.00;;;;;;5075299;28;20168;-68
2021/01/14 02:49:57;;;;;;;5.88;1.27;;;4.10;1.00;;;;;;5075410;28;20282;-68
2021/01/14 02:52:27;;;;;;;6.78;1.00;;;4.10;1.00;;;;;;5075302;28;20172;-68
2021/01/14 02:54:53;;;;;;;5.25;1.50;;;4.10;1.00;;;;;;5075005;28;20544;-68
2021/01/14 02:57:19;;;;;;;7.72;1.50;;;4.20;1.00;;;;;;5075162;28;20246;-67
2021/01/14 02:59:46;;;;;;;5.82;1.20;;;4.10;1.00;;;;;;5075236;28;20275;-68
2021/01/14 03:02:11;;;;;;;6.18;1.20;;;3.90;1.00;;;;;;5075370;28;20222;-67
2021/01/14 03:04:37;;;;;;;6.13;1.50;;;4.20;1.00;;;;;;5074939;28;20223;-68
2021/01/14 03:07:02;;;;;;;12.77;1.47;;;4.40;1.00;;;;;;5075017;28;20202;-68
2021/01/14 03:09:28;;;;;;;4.87;1.30;;;4.20;1.00;;;;;;5074937;28;20191;-68
2021/01/14 03:11:54;;;;;;;8.60;1.20;;;4.10;1.00;;;;;;5074919;28;20164;-68
2021/01/14 03:14:19;;;;;;;7.33;1.37;;;4.10;1.00;;;;;;5074873;28;20172;-67
2021/01/14 03:16:45;;;;;;;3.73;1.53;;;4.30;1.00;;;;;;5074904;28;20746;-68
2021/01/14 03:19:10;;;;;;;3.97;1.33;;;4.20;1.00;;;;;;5074956;28;20195;-68
2021/01/14 03:21:36;;;;;;;10.90;3.10;;;4.00;1.00;;;;;;5074822;28;20164;-68
2021/01/14 03:24:02;;;;;;;7.97;1.90;;;4.30;1.00;;;;;;5074906;28;20309;-68
2021/01/14 03:26:27;;;;;;;7.10;1.40;;;3.90;1.00;;;;;;5074648;28;20172;-68
2021/01/14 03:28:53;;;;;;;7.90;1.37;;;4.10;1.00;;;;;;5074512;28;20168;-67
2021/01/14 03:31:19;;;;;;;9.63;1.30;;;4.00;1.00;;;;;;5074828;28;20160;-67
2021/01/14 03:33:47;;;;;;;2.40;1.30;;;4.40;1.00;;;;;;5074523;28;20191;-67
2021/01/14 03:36:18;;;;;;;6.28;1.10;;;4.50;1.00;;;;;;5074727;28;20486;-68
2021/01/14 03:38:43;;;;;;;11.05;1.83;;;4.20;1.00;;;;;;5074694;28;20152;-68
2021/01/14 03:41:19;;;;;;;4.60;1.43;;;4.00;1.00;;;;;;5074354;28;20169;-68
2021/01/14 03:43:45;;;;;;;6.15;1.40;;;4.20;1.00;;;;;;5074276;28;20487;-68
2021/01/14 03:46:20;;;;;;;8.45;1.20;;;4.50;1.00;;;;;;5074289;28;20200;-68
2021/01/14 03:48:47;;;;;;;5.32;0.80;;;4.40;1.00;;;;;;5074027;28;20180;-68
2021/01/14 03:51:23;;;;;;;7.85;1.27;;;4.30;1.00;;;;;;5074689;28;20160;-68
2021/01/14 03:53:50;;;;;;;11.95;1.75;;;4.30;1.00;;;;;;5074089;28;20183;-68
2021/01/14 03:56:16;;;;;;;14.63;1.55;;;4.40;1.00;;;;;;5074042;28;20675;-68
2021/01/14 03:58:42;;;;;;;6.47;2.10;;;4.20;1.00;;;;;;5074002;28;20176;-68
2021/01/14 04:01:08;;;;;;;2.58;0.80;;;4.30;1.00;;;;;;5073965;28;20409;-68
2021/01/14 04:03:42;;;;;;;3.30;1.23;;;4.10;1.00;;;;;;5073827;28;20199;-68
2021/01/14 04:06:09;;;;;;;3.35;1.40;;;3.90;1.00;;;;;;5073948;28;20164;-68
2021/01/14 04:08:34;;;;;;;3.92;1.27;;;4.10;1.00;;;;;;5073200;28;20192;-67
2021/01/14 04:11:00;;;;;;;3.23;0.93;;;3.90;1.00;;;;;;5073894;28;20669;-67
2021/01/14 04:13:26;;;;;;;13.20;1.53;;;3.90;1.00;;;;;;5074246;28;20401;-67
2021/01/14 04:15:51;;;;;;;8.50;1.87;;;4.00;1.00;;;;;;5073815;28;20506;-67
2021/01/14 04:18:17;;;;;;;12.90;2.20;;;4.10;1.00;;;;;;5073544;28;20612;-67
2021/01/14 04:20:42;;;;;;;4.10;1.17;;;4.00;1.00;;;;;;5073469;28;20241;-67
2021/01/14 04:23:08;;;;;;;4.50;1.90;;;4.00;1.00;;;;;;5073368;28;20188;-67
2021/01/14 04:25:34;;;;;;;10.27;1.00;;;4.10;1.00;;;;;;5073666;28;20243;-67
2021/01/14 04:28:01;;;;;;;13.07;1.67;;;4.00;1.00;;;;;;5073562;28;20214;-67
2021/01/14 04:30:27;;;;;;;3.90;1.20;;;4.00;1.00;;;;;;5073303;28;20553;-67
2021/01/14 04:32:59;;;;;;;3.92;0.93;;;4.00;1.00;;;;;;5073304;28;20156;-67
2021/01/14 04:35:25;;;;;;;8.52;1.88;;;4.10;1.00;;;;;;5073321;28;20144;-67
2021/01/14 04:37:51;;;;;;;9.57;2.80;;;3.90;1.00;;;;;;5073321;28;20168;-67
2021/01/14 04:40:17;;;;;;;12.73;1.30;;;4.00;1.00;;;;;;5073170;28;20418;-67
2021/01/14 04:42:48;;;;;;;10.70;1.90;;;3.90;1.00;;;;;;5073153;28;20621;-67
2021/01/14 04:45:14;;;;;;;10.00;1.85;;;4.00;1.00;;;;;;5073681;28;20159;-67
2021/01/14 04:47:45;;;;;;;5.97;1.70;;;4.00;1.00;;;;;;5073122;28;20187;-67
2021/01/14 04:50:13;;;;;;;4.00;1.60;;;4.00;1.00;;;;;;5073293;28;20222;-67
2021/01/14 04:52:42;;;;;;;7.60;1.13;;;3.70;1.00;;;;;;5073064;28;20164;-67
2021/01/14 04:55:13;;;;;;;8.15;1.42;;;3.90;1.00;;;;;;5073333;28;20172;-67
2021/01/14 04:57:42;;;;;;;3.70;0.93;;;4.00;1.00;;;;;;5072995;28;20165;-67
2021/01/14 05:00:13;;;;;;;6.47;1.20;;;3.80;1.00;;;;;;5072851;28;20187;-67
2021/01/14 05:02:52;;;;;;;9.63;1.55;;;3.80;1.00;;;;;;5073172;28;20239;-67
2021/01/14 05:05:22;;;;;;;11.55;1.50;;;3.70;1.00;;;;;;5072984;28;20648;-67
2021/01/14 05:08:02;;;;;;;8.32;1.40;;;3.50;1.00;;;;;;5072899;28;20160;-67
2021/01/14 05:10:30;;;;;;;2.50;0.95;;;3.50;1.00;;;;;;5072677;28;20270;-67
2021/01/14 05:12:56;;;;;;;7.80;1.38;;;3.40;1.00;;;;;;5072731;28;20697;-67
2021/01/14 05:15:25;;;;;;;4.40;1.20;;;3.20;1.00;;;;;;5072689;28;20248;-67
2021/01/14 05:17:51;;;;;;;2.70;1.30;;;3.20;1.00;;;;;;5073110;28;20527;-67
2021/01/14 05:20:16;;;;;;;3.67;1.30;;;3.20;1.00;;;;;;5076710;28;20187;-67
2021/01/14 05:22:47;;;;;;;7.97;1.60;;;3.50;1.00;;;;;;5076926;28;20445;-67
2021/01/14 05:25:12;;;;;;;15.05;1.90;;;3.40;1.00;;;;;;5076870;28;20166;-67
2021/01/14 05:27:38;;;;;;;8.73;1.73;;;3.40;1.00;;;;;;5076817;28;20163;-67
2021/01/14 05:30:09;;;;;;;12.23;2.30;;;3.40;1.00;;;;;;5076834;28;20192;-67
2021/01/14 05:32:39;;;;;;;91.40;17.65;;;3.50;1.00;;;;;;5076666;28;20458;-66
2021/01/14 05:35:07;;;;;;;8.02;2.30;;;3.40;1.00;;;;;;5076433;28;20168;-66
2021/01/14 05:37:41;;;;;;;5.95;1.30;;;3.40;1.00;;;;;;5076440;28;20175;-67
2021/01/14 05:40:12;;;;;;;5.68;1.15;;;3.10;1.00;;;;;;5076197;28;20187;-66
2021/01/14 05:42:40;;;;;;;5.00;0.95;;;2.90;1.00;;;;;;5076175;28;20214;-67
2021/01/14 05:45:21;;;;;;;13.90;2.92;;;2.90;1.00;;;;;;5076168;28;20263;-66
2021/01/14 05:47:47;;;;;;;8.98;1.98;;;2.90;1.00;;;;;;5076280;28;20183;-66
2021/01/14 05:50:12;;;;;;;7.60;1.70;;;3.00;1.00;;;;;;5076250;28;20192;-66
2021/01/14 05:52:39;;;;;;;7.20;1.10;;;2.90;1.00;;;;;;5076215;28;20214;-66
2021/01/14 05:55:08;;;;;;;4.60;1.40;;;2.80;1.00;;;;;;5076019;28;20437;-66
2021/01/14 05:57:38;;;;;;;14.10;3.58;;;2.50;1.00;;;;;;5074726;28;20172;-67
2021/01/14 06:00:31;;;;;;;8.88;1.88;;;2.40;1.00;;;;;;5076123;28;20188;-67
2021/01/14 06:02:56;;;;;;;10.48;2.20;;;2.40;1.00;;;;;;5076122;28;20156;-67
2021/01/14 06:05:25;;;;;;;5.70;1.70;;;2.60;1.00;;;;;;5076014;28;20214;-67
2021/01/14 06:07:53;;;;;;;8.95;2.35;;;2.60;1.00;;;;;;5075730;28;20553;-67
2021/01/14 06:10:34;;;;;;;8.73;1.60;;;2.50;1.00;;;;;;5075824;28;20184;-67
2021/01/14 06:13:00;;;;;;;6.57;2.38;;;2.40;2.20;;;;;;5075923;28;20649;-67
2021/01/14 06:15:26;;;;;;;5.27;1.70;;;2.60;1.00;;;;;;5075924;28;20218;-66
2021/01/14 06:17:54;;;;;;;5.73;2.53;;;2.50;1.00;;;;;;5075652;28;20377;-67
2021/01/14 06:20:19;;;;;;;6.70;2.17;;;2.50;1.00;;;;;;5075608;28;20800;-67
2021/01/14 06:22:45;;;;;;;12.20;4.53;;;2.40;1.00;;;;;;5075517;28;20166;-67
2021/01/14 06:25:13;;;;;;;10.10;2.47;;;2.40;8.60;;;;;;5075692;28;20172;-67
2021/01/14 06:27:40;;;;;;;14.27;2.67;;;2.60;7.40;;;;;;5075239;28;20176;-67
2021/01/14 06:30:08;;;;;;;11.05;2.50;;;2.40;1.00;;;;;;5074517;28;20184;-67
2021/01/14 06:32:35;;;;;;;6.00;1.63;;;2.30;2.10;;;;;;5075493;28;20172;-67
2021/01/14 06:35:01;;;;;;;9.65;3.22;;;2.20;8.50;;;;;;5075420;28;20525;-67
2021/01/14 06:37:28;;;;;;;21.40;7.18;;;2.30;19.60;;;;;;5075065;28;20301;-66
2021/01/14 06:39:53;;;;;;;8.52;2.60;;;2.50;39.00;;;;;;5075385;28;20204;-67
2021/01/14 06:42:23;;;;;;;10.33;3.20;;;2.40;3.70;;;;;;5075253;28;20664;-67
2021/01/14 06:44:50;;;;;;;6.35;2.47;;;2.30;31.90;;;;;;5075201;28;20188;-67
2021/01/14 06:47:38;;;;;;;5.05;2.53;;;2.60;20.40;;;;;;5075001;28;20164;-67
2021/01/14 06:50:24;;;;;;;11.93;3.53;;;2.50;5.40;;;;;;5074964;28;20192;-67
2021/01/14 06:52:50;;;;;;;12.25;3.65;;;2.40;15.80;;;;;;5075064;28;20148;-67
2021/01/14 06:55:17;;;;;;;9.70;2.80;;;2.60;1.00;;;;;;5075082;28;20171;-66
2021/01/14 06:58:04;;;;;;;8.52;3.60;;;2.70;17.10;;;;;;5074999;28;20175;-67
2021/01/14 07:00:31;;;;;;;11.75;2.70;;;2.70;1.00;;;;;;5074883;28;20207;-67
2021/01/14 07:03:15;;;;;;;10.65;2.60;;;2.50;19.50;;;;;;5074973;28;20252;-67
2021/01/14 07:05:53;;;;;;;16.08;3.05;;;2.40;21.40;;;;;;5075098;28;20153;-66
2021/01/14 07:08:37;;;;;;;7.70;3.28;;;2.60;9.70;;;;;;5073577;28;20168;-67
2021/01/14 07:11:19;;;;;;;5.95;2.90;;;2.70;1.50;;;;;;5074593;28;20195;-67
2021/01/14 07:13:50;;;;;;;19.13;4.25;;;2.50;4.20;;;;;;5074530;28;20168;-67
2021/01/14 07:16:21;;;;;;;8.35;3.28;;;2.50;22.40;;;;;;5074614;28;20149;-67
2021/01/14 07:18:48;;;;;;;11.68;3.42;;;2.50;11.50;;;;;;5074656;28;20154;-68
2021/01/14 07:21:36;;;;;;;10.32;2.95;;;2.60;25.90;;;;;;5074520;28;20168;-67
2021/01/14 07:24:11;;;;;;;10.88;3.03;;;2.80;1.00;;;;;;5073272;28;20265;-67
2021/01/14 07:26:43;;;;;;;7.65;3.08;;;2.90;7.40;;;;;;5074568;28;20168;-66
2021/01/14 07:29:11;;;;;;;26.83;6.40;;;2.90;3.70;;;;;;5074612;28;20192;-67
2021/01/14 07:31:46;;;;;;;10.57;3.50;;;2.90;5.80;;;;;;5074415;28;20260;-67
2021/01/14 07:34:41;;;;;;;9.45;3.45;;;2.70;29.00;;;;;;5074338;28;20184;-67
2021/01/14 07:37:10;;;;;;;6.22;2.90;;;2.60;10.20;;;;;;5074164;28;20251;-67
2021/01/14 07:39:58;;;;;;;7.15;2.67;;;2.50;28.40;;;;;;5074032;28;20216;-67
2021/01/14 07:42:28;;;;;;;13.65;3.90;;;2.50;23.20;;;;;;5074401;28;20160;-67
2021/01/14 07:44:59;;;;;;;12.00;2.25;;;2.50;30.90;;;;;;5073788;28;20184;-64
2021/01/14 07:47:36;;;;;;;11.52;3.13;;;2.50;36.20;;;;;;5073963;28;20490;-68
2021/01/14 07:50:21;;;;;;;9.40;2.28;;;2.80;29.90;;;;;;5073876;28;20253;-65
2021/01/14 07:53:10;;;;;;;11.85;2.35;;;2.80;41.20;;;;;;5073933;28;20172;-68
2021/01/14 07:55:36;;;;;;;9.52;2.35;;;2.60;42.80;;;;;;5073556;28;20247;-67
2021/01/14 07:58:19;;;;;;;5.88;2.28;;;2.60;35.10;;;;;;5072256;28;20176;-68
2021/01/14 08:01:10;;;;;;;7.60;2.63;;;2.70;76.90;;;;;;5073570;28;20206;-67
2021/01/14 08:03:39;;;;;;;11.43;2.90;;;2.50;45.60;;;;;;5073532;28;20560;-67
2021/01/14 08:06:26;;;;;;;10.40;3.15;;;2.60;29.90;;;;;;5073576;28;20645;-67
2021/01/14 08:09:04;;;;;;;5.30;2.33;;;2.80;25.80;;;;;;5074014;28;20176;-67
2021/01/14 08:11:45;;;;;;;7.70;2.30;;;2.60;17.00;;;;;;5073404;28;20160;-66
2021/01/14 08:14:10;;;;;;;13.73;3.65;;;2.60;52.60;;;;;;5071773;28;20188;-67
2021/01/14 08:16:39;;;;;;;9.10;3.07;;;2.90;18.50;;;;;;5073611;28;20168;-67
2021/01/14 08:19:15;;;;;;;9.32;3.30;;;2.70;2.40;;;;;;5073286;28;20184;-67
2021/01/14 08:21:46;;;;;;;14.52;3.33;;;2.80;19.80;;;;;;5073481;28;20167;-68
2021/01/14 08:24:31;;;;;;;7.30;3.35;;;2.70;25.70;;;;;;5072986;28;20187;-68
2021/01/14 08:27:10;;;;;;;14.50;4.07;;;2.80;29.70;;;;;;5073026;28;20153;-67
2021/01/14 08:29:43;;;;;;;14.25;3.28;;;3.00;7.90;;;;;;5072884;28;20175;-66
2021/01/14 08:32:44;;;;;;;7.10;3.30;;;2.70;9.60;;;;;;5072381;28;20160;-67
2021/01/14 08:35:21;;;;;;;14.13;3.55;;;2.70;37.40;;;;;;5073163;28;20233;-67
2021/01/14 08:38:13;;;;;;;9.15;3.80;;;2.70;59.10;;;;;;5073288;28;20498;-67
2021/01/14 08:40:41;;;;;;;11.25;3.33;;;2.70;50.40;;;;;;5073081;28;20192;-67
2021/01/14 08:43:12;;;;;;;7.85;3.20;;;3.10;56.10;;;;;;5072914;28;20203;-66
2021/01/14 08:45:54;;;;;;;13.32;4.40;;;3.00;20.00;;;;;;5073090;28;20164;-67
2021/01/14 08:48:30;;;;;;;15.05;4.18;;;2.80;14.80;;;;;;5072508;28;20217;-67
2021/01/14 08:50:56;;;;;;;10.48;3.75;;;2.90;1.00;;;;;;5072527;28;20245;-66
2021/01/14 08:53:21;;;;;;;9.00;3.20;;;3.00;2.70;;;;;;5072058;28;20172;-67
2021/01/14 08:55:52;;;;;;;14.03;4.13;;;2.90;1.00;;;;;;5072653;28;20226;-66
2021/01/14 08:58:19;;;;;;;6.53;3.50;;;2.90;2.70;;;;;;5072347;28;20246;-67
2021/01/14 09:00:47;;;;;;;9.00;4.15;;;3.10;14.90;;;;;;5072441;28;20233;-67
2021/01/14 09:03:13;;;;;;;6.32;3.42;;;3.20;3.00;;;;;;5072538;28;20625;-67
2021/01/14 09:05:46;;;;;;;10.17;4.27;;;3.40;1.00;;;;;;5071463;28;20196;-67
2021/01/14 09:08:15;;;;;;;12.57;4.47;;;3.10;1.00;;;;;;5072944;28;20309;-67
2021/01/14 09:10:45;;;;;;;23.88;4.85;;;3.40;1.00;;;;;;5072446;28;20180;-67
2021/01/14 09:13:14;;;;;;;14.13;4.38;;;3.50;1.00;;;;;;5072750;28;20222;-67
2021/01/14 09:15:39;;;;;;;8.98;3.85;;;3.30;1.00;;;;;;5072750;28;20585;-67
2021/01/14 09:18:05;;;;;;;8.13;3.50;;;3.20;1.00;;;;;;5072739;28;20175;-67
2021/01/14 09:20:31;;;;;;;12.97;4.57;;;3.50;1.00;;;;;;5072724;28;20199;-66
2021/01/14 09:23:19;;;;;;;9.23;3.83;;;3.60;1.00;;;;;;5072551;28;20579;-67
2021/01/14 09:25:50;;;;;;;13.75;3.17;;;3.60;1.00;;;;;;5072517;28;20149;-67
2021/01/14 09:28:16;;;;;;;16.75;4.38;;;3.40;1.00;;;;;;5072447;28;20148;-67
2021/01/14 09:30:42;;;;;;;19.35;5.03;;;3.40;1.00;;;;;;5072431;28;20187;-67
2021/01/14 09:33:09;;;;;;;13.68;3.28;;;3.40;1.00;;;;;;5072252;28;20233;-67
2021/01/14 09:35:35;;;;;;;6.30;3.15;;;3.40;1.00;;;;;;5072023;28;20647;-67
2021/01/14 09:38:01;;;;;;;7.43;2.80;;;3.30;1.00;;;;;;5072231;28;20172;-67
2021/01/14 09:40:26;;;;;;;5.40;2.72;;;3.40;1.00;;;;;;5072208;28;20401;-67
2021/01/14 09:42:52;;;;;;;8.83;3.07;;;3.50;1.00;;;;;;5072544;28;20533;-67
2021/01/14 09:45:19;;;;;;;3.47;2.30;;;3.70;1.00;;;;;;5072803;28;20176;-67
2021/01/14 09:47:48;;;;;;;10.27;3.10;;;3.50;1.00;;;;;;5072349;28;20486;-67
2021/01/14 09:50:14;;;;;;;3.88;1.80;;;3.70;1.00;;;;;;5070516;28;20203;-67
2021/01/14 09:52:39;;;;;;;10.47;3.00;;;3.60;1.00;;;;;;5071968;28;20201;-67
2021/01/14 09:55:07;;;;;;;5.40;2.83;;;3.70;1.00;;;;;;5072163;28;20735;-67
2021/01/14 09:57:37;;;;;;;3.72;2.50;;;4.10;1.00;;;;;;5072414;28;20247;-67
2021/01/14 10:00:04;;;;;;;13.73;3.20;;;4.30;1.00;;;;;;5073041;28;20606;-68
2021/01/14 10:02:34;;;;;;;11.10;2.95;;;4.40;1.00;;;;;;5072766;28;20164;-68
2021/01/14 10:05:15;;;;;;;9.85;3.13;;;4.50;1.00;;;;;;5072721;28;20191;-67
2021/01/14 10:07:45;;;;;;;14.88;2.65;;;4.30;1.00;;;;;;5075853;28;20641;-67
2021/01/14 10:10:11;;;;;;;6.03;2.53;;;4.10;1.00;;;;;;5075856;28;20606;-68
2021/01/14 10:12:37;;;;;;;8.02;2.88;;;4.40;1.00;;;;;;5076157;28;20176;-68
2021/01/14 10:15:13;;;;;;;8.27;2.73;;;4.30;1.00;;;;;;5075966;28;20294;-68
2021/01/14 10:17:40;;;;;;;11.55;3.55;;;4.10;1.00;;;;;;5075916;28;20719;-67
2021/01/14 10:20:12;;;;;;;23.60;4.93;;;4.10;1.00;;;;;;5075830;28;20196;-67
2021/01/14 10:22:53;;;;;;;9.77;2.42;;;4.30;1.00;;;;;;5076031;28;20625;-67
2021/01/14 10:25:20;;;;;;;11.02;3.40;;;4.50;1.00;;;;;;5076064;28;20244;-68
2021/01/14 10:28:01;;;;;;;16.95;4.75;;;4.60;1.00;;;;;;5075968;28;20171;-68
2021/01/14 10:30:28;;;;;;;3.80;2.05;;;4.50;1.00;;;;;;5075961;28;20188;-68
2021/01/14 10:33:04;;;;;;;4.70;2.90;;;4.40;1.00;;;;;;5075714;28;20165;-68
2021/01/14 10:35:32;;;;;;;12.38;2.60;;;4.30;1.00;;;;;;5075840;28;20641;-68
2021/01/14 10:38:03;;;;;;;3.80;2.13;;;4.40;1.00;;;;;;5075764;28;20164;-68
2021/01/14 10:40:54;;;;;;;4.47;2.30;;;4.20;1.00;;;;;;5075374;28;20195;-69
2021/01/14 10:43:33;;;;;;;4.03;2.85;;;4.30;1.00;;;;;;5070300;28;20294;-66
2021/01/14 10:45:59;;;;;;;4.97;2.70;;;4.80;1.00;;;;;;5075540;28;20148;-67
2021/01/14 10:48:38;;;;;;;8.00;4.07;;;4.80;1.00;;;;;;5075130;28;20191;-68
2021/01/14 10:51:05;;;;;;;4.97;2.25;;;4.90;1.00;;;;;;5075280;28;20486;-68
2021/01/14 10:53:37;;;;;;;10.57;2.67;;;4.90;1.00;;;;;;5075237;28;20176;-67
2021/01/14 10:56:10;;;;;;;10.43;3.25;;;4.60;1.00;;;;;;5075421;28;20610;-68
2021/01/14 10:58:38;;;;;;;10.60;2.78;;;4.40;1.00;;;;;;5075490;28;20164;-68
2021/01/14 11:01:20;;;;;;;9.55;2.97;;;4.80;1.00;;;;;;5075120;28;20188;-67
2021/01/14 11:03:46;;;;;;;9.50;3.97;;;4.80;1.00;;;;;;5075570;28;20184;-67
2021/01/14 11:06:12;;;;;;;6.53;3.70;;;4.90;1.00;;;;;;5075273;28;20175;-68
2021/01/14 11:08:44;;;;;;;7.13;2.77;;;5.20;1.00;;;;;;5075296;28;20523;-67
2021/01/14 11:11:11;;;;;;;9.23;3.35;;;5.20;1.00;;;;;;5074802;28;20575;-68
2021/01/14 11:13:41;;;;;;;7.57;3.10;;;5.00;1.00;;;;;;5075013;28;20172;-68
2021/01/14 11:16:11;;;;;;;8.07;3.17;;;5.30;1.00;;;;;;5074623;28;20170;-68
2021/01/14 11:18:41;;;;;;;3.13;2.13;;;5.20;1.00;;;;;;5074966;28;20237;-68
2021/01/14 11:21:08;;;;;;;8.00;2.63;;;5.10;1.00;;;;;;5074651;28;20195;-67
2021/01/14 11:23:34;;;;;;;4.63;2.33;;;5.30;1.00;;;;;;5074847;28;20599;-68
2021/01/14 11:26:02;;;;;;;5.53;2.70;;;5.50;1.00;;;;;;5074743;28;20209;-69
2021/01/14 11:28:38;;;;;;;7.18;2.65;;;5.10;1.00;;;;;;5074220;28;20164;-67
2021/01/14 11:31:04;;;;;;;10.20;3.03;;;5.40;1.00;;;;;;5074791;28;20548;-68
2021/01/14 11:33:30;;;;;;;6.15;2.55;;;5.40;1.00;;;;;;5075055;28;20168;-68
2021/01/14 11:35:55;;;;;;;10.87;2.70;;;5.20;1.00;;;;;;5074247;28;20191;-67
2021/01/14 11:38:22;;;;;;;7.17;3.40;;;5.10;1.00;;;;;;5074187;28;20178;-67
2021/01/14 11:40:48;;;;;;;7.18;2.35;;;5.30;1.00;;;;;;5074435;28;20188;-68
2021/01/14 11:43:14;;;;;;;10.48;3.30;;;5.10;1.00;;;;;;5074181;28;20701;-69
2021/01/14 11:45:40;;;;;;;13.60;3.03;;;5.30;1.00;;;;;;5074818;28;20613;-67
2021/01/14 11:48:07;;;;;;;11.82;4.90;;;5.60;1.00;;;;;;5074097;28;20190;-68
2021/01/14 11:50:32;;;;;;;18.40;3.28;;;5.70;1.00;;;;;;5074319;28;20730;-68
2021/01/14 11:52:58;;;;;;;35.33;4.13;;;5.80;1.00;;;;;;5074133;28;20172;-67
2021/01/14 11:55:24;;;;;;;5.83;2.40;;;5.90;1.00;;;;;;5074357;28;20264;-67
2021/01/14 11:57:49;;;;;;;12.23;3.30;;;6.00;1.00;;;;;;5073962;28;20266;-67
2021/01/14 12:00:15;;;;;;;10.57;2.73;;;6.00;1.00;;;;;;5073491;28;20267;-66
2021/01/14 12:02:41;;;;;;;9.75;2.65;;;5.70;1.00;;;;;;5073861;28;20202;-67
2021/01/14 12:05:07;;;;;;;10.77;2.87;;;5.50;1.00;;;;;;5073633;28;20191;-67
2021/01/14 12:07:33;;;;;;;9.43;2.88;;;5.70;1.00;;;;;;5073904;28;20533;-68
2021/01/14 12:09:58;;;;;;;7.93;2.00;;;6.10;1.00;;;;;;5073351;28;20184;-68
2021/01/14 12:12:24;;;;;;;8.80;1.83;;;5.90;1.00;;;;;;5073500;28;20402;-66
2021/01/14 12:14:50;;;;;;;8.70;2.40;;;5.70;1.00;;;;;;5073173;28;20537;-67
2021/01/14 12:17:16;;;;;;;4.90;2.70;;;5.90;1.00;;;;;;5073400;28;20725;-67
2021/01/14 12:19:41;;;;;;;4.40;1.97;;;6.10;1.00;;;;;;5073406;28;20243;-67
2021/01/14 12:22:07;;;;;;;9.53;2.50;;;6.20;1.00;;;;;;5073625;28;20172;-68
2021/01/14 12:24:33;;;;;;;3.50;2.70;;;6.30;1.00;;;;;;5071863;28;20237;-68
2021/01/14 12:27:00;;;;;;;3.60;1.70;;;6.30;1.00;;;;;;5074022;28;20503;-68
2021/01/14 12:29:26;;;;;;;14.05;5.03;;;6.30;1.00;;;;;;5074323;28;20414;-68
2021/01/14 12:31:53;;;;;;;5.95;2.10;;;6.10;1.00;;;;;;5073496;28;20209;-68
2021/01/14 12:34:19;;;;;;;5.75;2.70;;;5.90;1.00;;;;;;5073138;28;20247;-67
2021/01/14 12:36:45;;;;;;;16.20;3.17;;;5.80;1.00;;;;;;5073555;28;20168;-67
2021/01/14 12:39:11;;;;;;;18.43;2.97;;;6.10;1.00;;;;;;5073187;28;20188;-67
2021/01/14 12:41:39;;;;;;;5.55;2.40;;;6.20;1.00;;;;;;5073209;28;20446;-68
2021/01/14 12:44:05;;;;;;;5.55;2.10;;;5.60;1.00;;;;;;5073210;28;20184;-67
2021/01/14 12:46:41;;;;;;;15.00;2.20;;;6.00;1.00;;;;;;5073267;28;20264;-66
2021/01/14 12:49:07;;;;;;;15.02;3.55;;;6.50;1.00;;;;;;5073233;28;20195;-67
2021/01/14 12:51:34;;;;;;;5.35;2.05;;;6.60;1.00;;;;;;5073334;28;20185;-66
2021/01/14 12:54:00;;;;;;;7.35;3.15;;;6.40;1.00;;;;;;5073414;28;20164;-68
2021/01/14 12:56:26;;;;;;;28.33;3.85;;;6.20;1.00;;;;;;5072712;28;20183;-68
2021/01/14 12:58:52;;;;;;;9.90;2.95;;;6.30;1.00;;;;;;5073362;28;20559;-67
2021/01/14 13:01:27;;;;;;;20.47;2.60;;;6.40;1.00;;;;;;5073509;28;20186;-66
2021/01/14 13:03:52;;;;;;;22.08;4.22;;;6.50;1.00;;;;;;5073254;28;20437;-67
2021/01/14 13:06:29;;;;;;;11.30;3.30;;;6.70;1.00;;;;;;5072962;28;20168;-68
2021/01/14 13:08:56;;;;;;;4.68;1.83;;;6.90;1.00;;;;;;5073004;28;20167;-68
2021/01/14 13:11:24;;;;;;;10.18;2.15;;;6.80;1.00;;;;;;5073226;28;20165;-67
2021/01/14 13:13:51;;;;;;;9.23;2.90;;;6.60;1.00;;;;;;5072883;28;20203;-66